createdAt,value
2018-05-24T00:01:28.374Z,66.40
2018-05-24T00:06:30.945Z,66.40
2018-05-24T00:11:35.426Z,66.90
2018-05-24T00:16:38.580Z,66.90
2018-05-24T00:21:43.245Z,66.80
2018-05-24T00:26:47.034Z,66.70
2018-05-24T00:31:52.402Z,66.70
2018-05-24T00:36:56.514Z,69.80
2018-05-24T00:41:59.121Z,69.70
2018-05-24T00:47:02.135Z,70.80
2018-05-24T00:52:04.726Z,71.30
2018-05-24T00:57:07.320Z,70.60
2018-05-24T01:02:09.936Z,70.10
2018-05-24T01:07:13.000Z,70.40
2018-05-24T01:12:18.371Z,70.90
2018-05-24T01:17:20.973Z,70.50
2018-05-24T01:22:23.565Z,70.40
2018-05-24T01:27:26.646Z,70.50
2018-05-24T01:32:29.865Z,71.20
2018-05-24T01:37:45.084Z,71.80
2018-05-24T01:42:50.169Z,71.80
2018-05-24T01:47:59.776Z,73.10
2018-05-24T01:53:18.271Z,72.20
2018-05-24T01:58:26.945Z,72.10
2018-05-24T02:03:29.621Z,72.10
2018-05-24T02:08:32.493Z,71.10
2018-05-24T02:13:35.520Z,70.90
2018-05-24T02:18:38.075Z,71.30
2018-05-24T02:23:40.631Z,71.80
2018-05-24T02:28:43.210Z,73.30
2018-05-24T02:33:45.794Z,73.90
2018-05-24T02:38:49.312Z,75.50
2018-05-24T02:43:53.298Z,77.10
2018-05-24T02:48:56.232Z,77.10
2018-05-24T02:53:59.575Z,78.20
2018-05-24T02:59:04.122Z,77.90
2018-05-24T03:04:06.697Z,77.90
2018-05-24T03:09:09.293Z,76.60
2018-05-24T03:14:12.171Z,76.00
2018-05-24T03:19:17.700Z,75.60
2018-05-24T03:24:20.285Z,75.50
2018-05-24T03:29:23.446Z,74.60
2018-05-24T03:34:26.350Z,73.90
2018-05-24T03:39:29.173Z,73.10
2018-05-24T03:44:33.317Z,72.30
2018-05-24T03:49:35.928Z,72.50
2018-05-24T03:54:39.270Z,71.80
2018-05-24T04:05:19.852Z,71.10
2018-05-24T04:10:24.509Z,71.40
2018-05-24T04:15:27.853Z,70.40
2018-05-24T04:20:31.028Z,70.10
2018-05-24T04:25:34.363Z,70.50
2018-05-24T04:30:40.714Z,69.90
2018-05-24T04:35:43.297Z,69.90
2018-05-24T04:40:45.868Z,69.40
2018-05-24T04:45:48.436Z,69.30
2018-05-24T04:50:52.049Z,70.60
2018-05-24T04:55:54.953Z,70.60
2018-05-24T05:00:57.528Z,71.90
2018-05-24T05:06:00.096Z,71.80
2018-05-24T05:11:02.691Z,72.40
2018-05-24T05:16:06.005Z,72.10
2018-05-24T05:21:11.176Z,72.80
2018-05-24T05:26:13.978Z,71.90
2018-05-24T05:31:19.733Z,72.00
2018-05-24T05:36:25.078Z,72.00
2018-05-24T05:41:28.767Z,72.40
2018-05-24T05:46:31.316Z,72.30
2018-05-24T05:51:33.901Z,72.00
2018-05-24T05:56:37.315Z,71.50
2018-05-24T06:01:40.709Z,70.90
2018-05-24T06:06:43.792Z,70.90
2018-05-24T06:11:47.229Z,70.70
2018-05-24T06:16:49.819Z,69.50
2018-05-24T06:21:52.393Z,67.70
2018-05-24T06:26:55.605Z,66.80
2018-05-24T06:31:59.310Z,66.40
2018-05-24T06:37:01.894Z,66.60
2018-05-24T06:42:04.829Z,67.50
2018-05-24T06:47:09.877Z,66.20
2018-05-24T06:52:12.938Z,66.10
2018-05-24T06:57:15.896Z,66.50
2018-05-24T07:02:18.911Z,66.60
2018-05-24T07:07:21.511Z,66.70
2018-05-24T07:12:24.553Z,67.10
2018-05-24T07:17:27.139Z,69.40
2018-05-24T07:22:29.905Z,70.70
2018-05-24T07:27:32.912Z,71.80
2018-05-24T07:32:35.497Z,73.70
2018-05-24T07:37:38.941Z,72.70
2018-05-24T07:42:41.459Z,72.60
2018-05-24T07:47:44.620Z,72.60
2018-05-24T07:52:48.319Z,70.30
2018-05-24T07:57:50.896Z,70.30
2018-05-24T08:02:53.480Z,70.40
2018-05-24T08:07:56.306Z,68.40
2018-05-24T08:12:59.313Z,67.10
2018-05-24T08:18:01.894Z,67.40
2018-05-24T08:23:04.904Z,66.70
2018-05-24T08:28:08.049Z,66.90
2018-05-24T08:33:11.110Z,65.20
2018-05-24T08:38:15.004Z,65.50
2018-05-24T08:43:17.603Z,65.00
2018-05-24T08:48:21.595Z,63.20
2018-05-24T08:53:25.654Z,62.60
2018-05-24T08:58:28.856Z,62.60
2018-05-24T09:03:32.989Z,62.90
2018-05-24T09:08:36.381Z,62.50
2018-05-24T09:13:39.746Z,62.50
2018-05-24T09:18:43.529Z,62.20
2018-05-24T09:23:47.824Z,62.00
2018-05-24T09:28:50.406Z,61.20
2018-05-24T09:33:54.397Z,59.50
2018-05-24T09:38:56.980Z,60.10
2018-05-24T09:43:59.619Z,59.80
2018-05-24T09:49:02.471Z,60.40
2018-05-24T09:54:05.047Z,58.20
2018-05-24T09:59:10.158Z,57.40
2018-05-24T10:04:12.800Z,57.30
2018-05-24T10:09:16.140Z,55.80
2018-05-24T10:14:19.296Z,55.80
2018-05-24T10:19:24.377Z,54.90
2018-05-24T10:24:28.007Z,54.90
2018-05-24T10:29:32.692Z,55.30
2018-05-24T10:34:35.271Z,55.30
2018-05-24T10:39:38.099Z,55.40
2018-05-24T10:44:40.715Z,55.80
2018-05-24T10:49:43.647Z,55.40
2018-05-24T10:54:46.635Z,53.90
2018-05-24T10:59:49.222Z,54.50
2018-05-24T11:04:51.875Z,52.40
2018-05-24T11:09:56.316Z,50.30
2018-05-24T11:14:59.968Z,51.40
2018-05-24T11:20:03.145Z,50.80
2018-05-24T11:25:06.550Z,48.70
2018-05-24T11:30:09.885Z,48.60
2018-05-24T11:35:13.797Z,47.70
2018-05-24T11:40:17.157Z,47.40
2018-05-24T11:45:19.734Z,47.30
2018-05-24T11:50:24.198Z,46.10
2018-05-24T11:55:27.063Z,45.90
2018-05-24T12:00:31.097Z,46.80
2018-05-24T12:05:35.539Z,44.40
2018-05-24T12:10:38.878Z,40.80
2018-05-24T12:15:41.450Z,40.70
2018-05-24T12:20:47.392Z,46.10
2018-05-24T12:25:49.987Z,46.10
2018-05-24T12:30:52.578Z,41.70
2018-05-24T12:35:55.223Z,41.60
2018-05-24T12:40:58.596Z,40.20
2018-05-24T12:46:01.633Z,40.20
2018-05-24T12:51:04.992Z,40.90
2018-05-24T12:56:08.024Z,40.60
2018-05-24T13:01:13.189Z,42.50
2018-05-24T13:06:16.016Z,43.80
2018-05-24T13:11:19.073Z,44.40
2018-05-24T13:16:21.673Z,40.60
2018-05-24T13:21:25.028Z,36.00
2018-05-24T13:26:29.385Z,35.30
2018-05-24T13:31:34.458Z,36.90
2018-05-24T13:36:37.541Z,36.90
2018-05-24T13:41:40.104Z,35.30
2018-05-24T13:46:42.664Z,33.10
2018-05-24T13:51:46.465Z,36.70
2018-05-24T13:56:49.162Z,36.70
2018-05-24T14:01:51.790Z,32.80
2018-05-24T14:06:54.487Z,31.10
2018-05-24T14:11:57.066Z,31.70
2018-05-24T14:16:59.662Z,32.80
2018-05-24T14:22:03.011Z,30.90
2018-05-24T14:27:05.590Z,29.40
2018-05-24T14:32:08.925Z,31.00
2018-05-24T14:37:11.500Z,31.00
2018-05-24T14:42:14.211Z,29.60
2018-05-24T14:47:20.870Z,28.60
2018-05-24T14:52:23.815Z,28.60
2018-05-24T14:57:28.155Z,29.80
2018-05-24T15:02:30.680Z,29.80
2018-05-24T15:07:33.695Z,30.00
2018-05-24T15:12:36.541Z,29.20
2018-05-24T15:17:39.813Z,31.80
2018-05-24T15:22:42.387Z,29.30
2018-05-24T15:27:46.545Z,28.20
2018-05-24T15:32:49.529Z,29.90
2018-05-24T15:37:52.113Z,29.50
2018-05-24T15:42:56.935Z,29.00
2018-05-24T15:47:59.792Z,29.00
2018-05-24T15:53:02.665Z,28.50
2018-05-24T15:58:06.796Z,30.30
2018-05-24T16:03:10.152Z,29.00
2018-05-24T16:08:12.722Z,28.90
2018-05-24T16:13:17.892Z,28.90
2018-05-24T16:18:21.209Z,28.80
2018-05-24T16:23:23.785Z,29.90
2018-05-24T16:28:27.134Z,30.00
2018-05-24T16:33:30.013Z,29.90
2018-05-24T16:38:37.687Z,29.70
2018-05-24T16:43:40.261Z,29.60
2018-05-24T16:48:44.056Z,30.10
2018-05-24T16:53:47.737Z,30.10
2018-05-24T16:58:50.318Z,30.00
2018-05-24T17:03:53.285Z,30.80
2018-05-24T17:08:57.285Z,30.70
2018-05-24T17:14:03.474Z,30.70
2018-05-24T17:19:06.853Z,30.60
2018-05-24T17:24:11.944Z,30.60
2018-05-24T17:29:14.977Z,30.80
2018-05-24T17:34:18.357Z,31.10
2018-05-24T17:39:20.956Z,31.10
2018-05-24T17:44:26.571Z,32.30
2018-05-24T17:49:29.664Z,32.60
2018-05-24T17:54:34.377Z,34.00
2018-05-24T17:59:40.757Z,33.90
2018-05-24T18:04:43.634Z,34.50
2018-05-24T18:09:46.711Z,33.80
2018-05-24T18:14:49.626Z,34.40
2018-05-24T18:19:53.156Z,35.00
2018-05-24T18:24:55.802Z,35.40
2018-05-24T18:29:58.756Z,37.30
2018-05-24T18:35:02.277Z,40.10
2018-05-24T18:40:04.992Z,40.10
2018-05-24T18:45:08.542Z,40.20
2018-05-24T18:50:11.243Z,41.20
2018-05-24T18:55:13.985Z,42.60
2018-05-24T19:00:16.734Z,43.40
2018-05-24T19:05:19.402Z,44.10
2018-05-24T19:10:22.104Z,44.70
2018-05-24T19:15:28.387Z,45.40
2018-05-24T19:20:31.032Z,45.40
2018-05-24T19:25:35.369Z,46.50
2018-05-24T19:30:38.003Z,47.00
2018-05-24T19:35:43.037Z,47.90
2018-05-24T19:40:45.897Z,47.90
2018-05-24T19:45:48.496Z,47.50
2018-05-24T19:50:51.645Z,47.10
2018-05-24T19:55:54.242Z,46.60
2018-05-24T20:00:56.865Z,47.00
2018-05-24T20:05:59.742Z,47.60
2018-05-24T20:11:05.046Z,48.50
2018-05-24T20:16:08.176Z,48.60
2018-05-24T20:21:11.518Z,48.00
2018-05-24T20:26:14.749Z,47.90
2018-05-24T20:31:18.184Z,48.40
2018-05-24T20:36:21.313Z,48.30
2018-05-24T20:41:23.903Z,48.50
2018-05-24T20:46:26.729Z,48.60
2018-05-24T20:51:31.489Z,50.00
2018-05-24T20:56:34.815Z,50.80
2018-05-24T21:01:37.926Z,50.80
2018-05-24T21:06:41.161Z,51.10
2018-05-24T21:11:44.541Z,51.30
2018-05-24T21:16:47.873Z,51.40
2018-05-24T21:21:51.044Z,51.30
2018-05-24T21:26:53.934Z,51.20
2018-05-24T21:31:56.577Z,51.70
2018-05-24T21:36:59.918Z,53.30
2018-05-24T21:42:02.534Z,53.20
2018-05-24T21:47:05.540Z,53.40
2018-05-24T21:52:08.110Z,53.60
2018-05-24T21:57:10.705Z,53.60
2018-05-24T22:02:13.634Z,53.70
2018-05-24T22:07:16.390Z,54.00
2018-05-24T22:12:20.940Z,54.60
2018-05-24T22:17:24.423Z,55.20
2018-05-24T22:22:27.005Z,55.20
2018-05-24T22:27:30.245Z,55.30
2018-05-24T22:32:32.955Z,55.80
2018-05-24T22:37:37.209Z,56.50
2018-05-24T22:42:40.626Z,56.80
2018-05-24T22:47:44.893Z,57.10
2018-05-24T22:52:50.434Z,57.00
2018-05-24T22:57:54.242Z,57.60
2018-05-24T23:02:56.960Z,57.50
2018-05-24T23:08:00.897Z,57.90
2018-05-24T23:13:06.559Z,57.90
2018-05-24T23:18:09.903Z,58.60
2018-05-24T23:23:12.465Z,58.50
2018-05-24T23:28:15.047Z,58.60
2018-05-24T23:33:17.604Z,58.70
2018-05-24T23:38:20.172Z,58.40
2018-05-24T23:43:23.508Z,59.30
2018-05-24T23:48:26.539Z,59.10
2018-05-24T23:53:29.116Z,59.20
2018-05-24T23:58:31.676Z,59.10
